createdAt,value
2022-08-14T00:00:02.335Z,7.63
2022-08-14T00:03:29.399Z,7.63
2022-08-14T00:06:31.514Z,6.60
2022-08-14T00:09:39.640Z,6.35
2022-08-14T00:12:53.284Z,6.57
2022-08-14T00:15:59.941Z,6.22
2022-08-14T00:19:18.666Z,9.85
2022-08-14T00:22:57.172Z,7.15
2022-08-14T00:25:53.933Z,6.00
2022-08-14T00:29:08.015Z,6.75
2022-08-14T00:33:01.689Z,5.43
2022-08-14T00:36:33.877Z,6.57
2022-08-14T00:38:54.244Z,6.70
2022-08-14T00:41:55.952Z,4.88
2022-08-14T00:44:59.124Z,7.50
2022-08-14T00:48:00.885Z,8.00
2022-08-14T00:51:04.323Z,7.90
2022-08-14T00:54:17.011Z,9.10
2022-08-14T00:57:30.565Z,7.25
2022-08-14T01:00:43.124Z,7.85
2022-08-14T01:03:53.020Z,8.32
2022-08-14T01:06:55.487Z,9.43
2022-08-14T01:09:59.070Z,7.80
2022-08-14T01:13:01.347Z,8.82
2022-08-14T01:16:08.034Z,7.97
2022-08-14T01:19:28.660Z,7.78
2022-08-14T01:22:30.405Z,8.88
2022-08-14T01:25:33.280Z,6.28
2022-08-14T01:28:56.356Z,9.07
2022-08-14T01:32:01.709Z,6.75
2022-08-14T01:35:17.751Z,9.65
2022-08-14T01:38:37.267Z,6.93
2022-08-14T01:41:40.676Z,8.90
2022-08-14T01:44:43.137Z,7.55
2022-08-14T01:47:51.673Z,8.52
2022-08-14T01:51:19.260Z,8.45
2022-08-14T01:54:23.487Z,10.38
2022-08-14T01:57:55.322Z,6.32
2022-08-14T02:01:05.853Z,10.40
2022-08-14T02:04:20.459Z,13.45
2022-08-14T02:07:53.402Z,7.50
2022-08-14T02:11:17.101Z,12.48
2022-08-14T02:14:31.555Z,9.43
2022-08-14T02:17:34.601Z,9.13
2022-08-14T02:20:36.399Z,8.05
2022-08-14T02:23:39.707Z,11.15
2022-08-14T02:28:19.142Z,8.70
2022-08-14T02:30:06.016Z,10.05
2022-08-14T02:33:10.795Z,9.77
2022-08-14T02:37:04.626Z,7.63
2022-08-14T02:39:44.209Z,7.97
2022-08-14T02:42:54.184Z,8.50
2022-08-14T02:45:57.139Z,8.27
2022-08-14T02:49:04.770Z,9.85
2022-08-14T02:52:26.751Z,12.32
2022-08-14T02:55:30.961Z,9.52
2022-08-14T02:58:38.539Z,10.23
2022-08-14T03:01:50.997Z,10.45
2022-08-14T03:04:56.628Z,9.93
2022-08-14T03:08:15.918Z,11.35
2022-08-14T03:11:21.664Z,12.23
2022-08-14T03:14:27.664Z,8.35
2022-08-14T03:17:31.981Z,8.68
2022-08-14T03:20:51.637Z,9.90
2022-08-14T03:24:22.973Z,10.95
2022-08-14T03:27:26.917Z,10.68
2022-08-14T03:30:39.756Z,11.18
2022-08-14T03:33:44.008Z,9.77
2022-08-14T03:37:51.458Z,9.57
2022-08-14T03:40:11.373Z,10.48
2022-08-14T03:43:19.430Z,8.23
2022-08-14T03:46:52.942Z,10.07
2022-08-14T03:49:47.676Z,9.07
2022-08-14T03:52:55.951Z,12.40
2022-08-14T03:55:59.182Z,12.02
2022-08-14T03:59:07.950Z,15.00
2022-08-14T04:02:33.290Z,9.35
2022-08-14T04:05:42.770Z,9.48
2022-08-14T04:08:45.250Z,11.27
2022-08-14T04:11:48.709Z,10.10
2022-08-14T04:14:52.698Z,13.18
2022-08-14T04:17:55.152Z,10.73
2022-08-14T04:20:58.678Z,9.35
2022-08-14T04:24:01.380Z,10.27
2022-08-14T04:27:03.173Z,10.10
2022-08-14T04:30:05.803Z,10.10
2022-08-14T04:33:17.178Z,8.05
2022-08-14T04:36:23.921Z,8.82
2022-08-14T04:39:46.835Z,11.73
2022-08-14T04:43:07.156Z,9.63
2022-08-14T04:46:56.761Z,9.38
2022-08-14T04:49:57.057Z,12.52
2022-08-14T04:52:59.528Z,11.07
2022-08-14T04:56:05.861Z,12.18
2022-08-14T04:59:12.684Z,11.77
2022-08-14T05:02:16.550Z,11.40
2022-08-14T05:05:20.969Z,15.27
2022-08-14T05:08:32.430Z,13.85
2022-08-14T05:11:47.292Z,10.75
2022-08-14T05:14:55.027Z,12.05
2022-08-14T05:18:03.512Z,12.48
2022-08-14T05:22:00.078Z,12.38
2022-08-14T05:24:41.215Z,15.80
2022-08-14T05:27:42.925Z,10.45
2022-08-14T05:30:47.192Z,11.32
2022-08-14T05:33:56.820Z,12.00
2022-08-14T05:37:02.308Z,13.68
2022-08-14T05:40:05.105Z,11.38
2022-08-14T05:43:08.333Z,12.80
2022-08-14T05:46:15.383Z,13.65
2022-08-14T05:49:17.397Z,14.90
2022-08-14T05:52:38.523Z,11.55
2022-08-14T05:55:42.762Z,11.07
2022-08-14T05:58:46.244Z,12.52
2022-08-14T06:01:47.961Z,12.82
2022-08-14T06:04:52.763Z,16.35
2022-08-14T06:07:54.751Z,12.25
2022-08-14T06:11:03.569Z,15.52
2022-08-14T06:14:12.409Z,11.10
2022-08-14T06:17:45.863Z,10.35
2022-08-14T06:20:48.873Z,11.68
2022-08-14T06:23:51.417Z,13.13
2022-08-14T06:26:54.305Z,11.70
2022-08-14T06:30:08.053Z,11.32
2022-08-14T06:33:13.188Z,11.30
2022-08-14T06:36:18.904Z,10.80
2022-08-14T06:39:36.529Z,11.90
2022-08-14T06:42:40.540Z,13.68
2022-08-14T06:45:50.168Z,10.60
2022-08-14T06:48:56.160Z,14.05
2022-08-14T06:51:57.902Z,10.68
2022-08-14T06:54:59.700Z,13.38
2022-08-14T06:58:01.413Z,11.32
2022-08-14T07:01:27.385Z,9.73
2022-08-14T07:04:48.510Z,10.38
2022-08-14T07:07:50.865Z,12.45
2022-08-14T07:10:55.143Z,10.07
2022-08-14T07:14:01.323Z,9.73
2022-08-14T07:17:06.277Z,10.35
2022-08-14T07:20:09.708Z,9.23
2022-08-14T07:23:20.591Z,8.63
2022-08-14T07:26:22.779Z,11.15
2022-08-14T07:29:26.501Z,16.20
2022-08-14T07:32:34.177Z,9.13
2022-08-14T07:35:57.343Z,9.30
2022-08-14T07:39:00.546Z,12.20
2022-08-14T07:42:02.442Z,9.35
2022-08-14T07:45:05.179Z,8.10
2022-08-14T07:48:06.991Z,9.32
2022-08-14T07:51:11.507Z,9.77
2022-08-14T07:54:16.534Z,9.70
2022-08-14T07:57:25.217Z,8.57
2022-08-14T08:00:31.373Z,9.48
2022-08-14T08:03:36.803Z,9.38
2022-08-14T08:06:39.056Z,7.82
2022-08-14T08:09:53.305Z,9.55
2022-08-14T08:13:00.552Z,9.20
2022-08-14T08:16:05.112Z,7.70
2022-08-14T08:19:10.132Z,9.00
2022-08-14T08:22:15.227Z,7.93
2022-08-14T08:25:21.103Z,8.07
2022-08-14T08:28:26.634Z,9.00
2022-08-14T08:31:33.142Z,9.07
2022-08-14T08:34:47.019Z,8.25
2022-08-14T08:38:01.248Z,9.48
2022-08-14T08:41:03.658Z,7.00
2022-08-14T08:44:06.170Z,8.25
2022-08-14T08:47:38.742Z,8.00
2022-08-14T08:53:41.821Z,6.43
2022-08-14T08:56:52.018Z,8.52
2022-08-14T08:59:55.256Z,9.52
2022-08-14T09:03:12.463Z,7.88
2022-08-14T09:06:53.880Z,8.15
2022-08-14T09:09:54.403Z,10.25
2022-08-14T09:13:00.760Z,7.82
2022-08-14T09:16:18.353Z,6.70
2022-08-14T09:19:21.169Z,7.05
2022-08-14T09:22:35.883Z,7.18
2022-08-14T09:25:59.912Z,6.95
2022-08-14T09:29:04.929Z,6.35
2022-08-14T09:32:10.103Z,7.63
2022-08-14T09:35:44.030Z,7.95
2022-08-14T09:39:01.819Z,8.15
2022-08-14T09:42:33.480Z,5.97
2022-08-14T09:45:53.490Z,13.48
2022-08-14T09:49:04.055Z,6.60
2022-08-14T09:52:33.296Z,6.18
2022-08-14T09:55:41.638Z,9.95
2022-08-14T09:58:47.584Z,6.78
2022-08-14T10:01:52.647Z,6.88
2022-08-14T10:05:04.256Z,8.30
2022-08-14T10:08:26.272Z,10.20
2022-08-14T10:11:37.685Z,6.28
2022-08-14T10:14:45.113Z,6.88
2022-08-14T10:18:09.327Z,8.70
2022-08-14T10:21:18.055Z,7.38
2022-08-14T10:24:36.115Z,7.53
2022-08-14T10:27:39.208Z,6.60
2022-08-14T10:30:42.329Z,4.93
2022-08-14T10:33:46.946Z,5.95
2022-08-14T10:37:14.084Z,5.57
2022-08-14T10:40:44.079Z,6.53
2022-08-14T10:44:21.576Z,8.02
2022-08-14T10:47:41.560Z,4.32
2022-08-14T10:50:59.687Z,4.22
2022-08-14T10:54:25.962Z,4.47
2022-08-14T10:57:30.399Z,6.18
2022-08-14T11:00:35.368Z,5.95
2022-08-14T11:03:56.175Z,6.10
2022-08-14T11:06:59.205Z,3.83
2022-08-14T11:10:04.688Z,6.57
2022-08-14T11:13:07.043Z,3.63
2022-08-14T11:16:09.733Z,3.85
2022-08-14T11:19:13.507Z,5.40
2022-08-14T11:22:55.690Z,5.63
2022-08-14T11:25:53.321Z,5.45
2022-08-14T11:28:59.127Z,5.40
2022-08-14T11:32:03.255Z,5.03
2022-08-14T11:35:05.908Z,4.25
2022-08-14T11:38:08.749Z,5.90
2022-08-14T11:41:12.387Z,8.18
2022-08-14T11:44:17.877Z,4.50
2022-08-14T11:47:44.210Z,5.10
2022-08-14T11:51:00.215Z,5.95
2022-08-14T11:54:04.879Z,4.50
2022-08-14T11:57:14.860Z,4.72
2022-08-14T12:00:21.619Z,4.78
2022-08-14T12:03:51.185Z,4.35
2022-08-14T12:06:55.888Z,4.28
2022-08-14T12:09:58.509Z,5.35
2022-08-14T12:13:17.702Z,4.95
2022-08-14T12:16:22.900Z,3.97
2022-08-14T12:19:25.380Z,5.13
2022-08-14T12:22:40.063Z,3.75
2022-08-14T12:25:42.272Z,4.55
2022-08-14T12:29:08.101Z,7.53
2022-08-14T12:32:12.633Z,4.47
2022-08-14T12:35:15.458Z,4.97
2022-08-14T12:38:20.988Z,6.38
2022-08-14T12:41:28.265Z,7.78
2022-08-14T12:44:42.903Z,5.43
2022-08-14T12:47:45.485Z,4.78
2022-08-14T12:50:53.280Z,5.22
2022-08-14T12:53:59.667Z,6.00
2022-08-14T12:57:18.752Z,6.40
2022-08-14T13:00:24.403Z,4.38
2022-08-14T13:03:29.240Z,9.15
2022-08-14T13:06:31.752Z,4.03
2022-08-14T13:09:36.619Z,5.07
2022-08-14T13:12:56.781Z,7.35
2022-08-14T13:16:05.156Z,5.25
2022-08-14T13:19:24.380Z,4.32
2022-08-14T13:22:33.233Z,4.25
2022-08-14T13:25:37.658Z,3.05
2022-08-14T13:29:02.117Z,3.17
2022-08-14T13:32:05.865Z,7.90
2022-08-14T13:35:12.179Z,5.07
2022-08-14T13:38:22.093Z,4.65
2022-08-14T13:41:34.616Z,4.53
2022-08-14T13:44:40.385Z,4.03
2022-08-14T13:47:46.502Z,4.80
2022-08-14T13:50:55.072Z,5.55
2022-08-14T13:54:09.904Z,4.57
2022-08-14T13:57:13.369Z,6.18
2022-08-14T14:00:18.067Z,5.05
2022-08-14T14:03:24.406Z,5.93
2022-08-14T14:06:27.592Z,4.03
2022-08-14T14:09:32.692Z,3.95
2022-08-14T14:12:56.424Z,5.05
2022-08-14T14:16:02.777Z,5.35
2022-08-14T14:19:09.862Z,4.82
2022-08-14T14:23:01.860Z,6.60
2022-08-14T14:25:48.698Z,5.60
2022-08-14T14:28:59.288Z,4.45
2022-08-14T14:32:02.094Z,4.38
2022-08-14T14:35:05.119Z,6.22
2022-08-14T14:38:08.838Z,7.80
2022-08-14T14:41:15.159Z,4.95
2022-08-14T14:44:22.601Z,4.95
2022-08-14T14:47:25.875Z,4.55
2022-08-14T14:50:27.840Z,6.57
2022-08-14T14:53:39.112Z,3.75
2022-08-14T14:56:50.015Z,4.53
2022-08-14T14:59:53.911Z,5.63
2022-08-14T15:02:57.629Z,5.20
2022-08-14T15:06:02.555Z,5.22
2022-08-14T15:09:05.518Z,7.20
2022-08-14T15:12:34.739Z,6.60
2022-08-14T15:15:37.031Z,7.25
2022-08-14T15:18:46.477Z,3.80
2022-08-14T15:21:50.825Z,4.30
2022-08-14T15:24:52.519Z,4.95
2022-08-14T15:27:54.968Z,4.50
2022-08-14T15:30:58.804Z,7.43
2022-08-14T15:34:44.795Z,4.57
2022-08-14T15:37:47.791Z,4.25
2022-08-14T15:41:01.886Z,4.47
2022-08-14T15:44:03.768Z,7.25
2022-08-14T15:47:09.211Z,4.95
2022-08-14T15:50:12.765Z,3.72
2022-08-14T15:53:14.984Z,6.28
2022-08-14T15:56:42.517Z,4.65
2022-08-14T15:59:59.447Z,4.78
2022-08-14T16:03:02.224Z,4.00
2022-08-14T16:06:11.065Z,4.00
2022-08-14T16:09:17.516Z,4.80
2022-08-14T16:12:20.209Z,4.47
2022-08-14T16:15:45.424Z,4.30
2022-08-14T16:18:58.056Z,4.68
2022-08-14T16:22:59.553Z,4.07
2022-08-14T16:25:35.446Z,4.50
2022-08-14T16:29:04.190Z,5.65
2022-08-14T16:32:32.587Z,7.30
2022-08-14T16:35:42.898Z,4.43
2022-08-14T16:39:00.145Z,5.53
2022-08-14T16:42:10.528Z,4.10
2022-08-14T16:45:28.683Z,3.88
2022-08-14T16:48:54.927Z,5.10
2022-08-14T16:51:52.945Z,3.83
2022-08-14T16:54:55.501Z,5.45
2022-08-14T16:57:59.101Z,3.40
2022-08-14T17:01:23.081Z,4.45
2022-08-14T17:04:34.425Z,5.00
2022-08-14T17:08:31.465Z,4.30
2022-08-14T17:11:27.867Z,4.50
2022-08-14T17:14:51.112Z,4.18
2022-08-14T17:17:58.355Z,4.35
2022-08-14T17:21:31.890Z,4.18
2022-08-14T17:24:56.986Z,4.50
2022-08-14T17:28:51.474Z,4.22
2022-08-14T17:31:57.756Z,4.15
2022-08-14T17:35:01.950Z,5.05
2022-08-14T17:38:10.204Z,4.22
2022-08-14T17:41:43.425Z,4.05
2022-08-14T17:44:48.042Z,5.25
2022-08-14T17:47:51.314Z,4.20
2022-08-14T17:51:00.121Z,3.70
2022-08-14T17:54:04.839Z,4.00
2022-08-14T17:57:13.901Z,4.00
2022-08-14T18:00:17.327Z,4.82
2022-08-14T18:03:46.769Z,5.10
2022-08-14T18:06:58.878Z,5.13
2022-08-14T18:10:55.234Z,5.78
2022-08-14T18:13:50.394Z,5.22
2022-08-14T18:16:58.451Z,4.90
2022-08-14T18:20:15.905Z,4.82
2022-08-14T18:23:26.940Z,5.32
2022-08-14T18:26:37.044Z,4.30
2022-08-14T18:29:54.764Z,4.80
2022-08-14T18:32:59.145Z,11.93
2022-08-14T18:36:47.149Z,10.68
2022-08-14T18:39:25.789Z,6.88
2022-08-14T18:42:32.783Z,4.38
2022-08-14T18:45:43.061Z,12.70
2022-08-14T18:48:51.121Z,8.52
2022-08-14T18:52:13.475Z,5.28
2022-08-14T18:55:21.377Z,5.53
2022-08-14T18:58:30.971Z,4.97
2022-08-14T19:01:35.611Z,6.03
2022-08-14T19:04:37.799Z,6.47
2022-08-14T19:07:48.396Z,5.50
2022-08-14T19:10:54.540Z,7.60
2022-08-14T19:13:59.303Z,7.72
2022-08-14T19:17:01.165Z,5.85
2022-08-14T19:20:09.470Z,6.43
2022-08-14T19:23:18.508Z,6.25
2022-08-14T19:26:35.405Z,4.25
2022-08-14T19:29:51.307Z,4.45
2022-08-14T19:32:57.086Z,5.00
2022-08-14T19:36:28.764Z,3.30
2022-08-14T19:39:55.478Z,4.10
2022-08-14T19:42:58.534Z,4.93
2022-08-14T19:46:01.401Z,4.07
2022-08-14T19:49:03.868Z,4.85
2022-08-14T19:52:17.523Z,3.63
2022-08-14T19:55:34.428Z,3.95
2022-08-14T19:58:55.290Z,3.50
2022-08-14T20:01:59.535Z,4.47
2022-08-14T20:05:04.210Z,4.22
2022-08-14T20:08:07.486Z,5.32
2022-08-14T20:12:00.290Z,6.68
2022-08-14T20:14:53.698Z,5.97
2022-08-14T20:17:55.543Z,13.32
2022-08-14T20:21:00.940Z,6.43
2022-08-14T20:24:41.009Z,13.90
2022-08-14T20:27:45.370Z,6.90
2022-08-14T20:30:48.788Z,5.63
2022-08-14T20:34:25.033Z,6.13
2022-08-14T20:37:35.727Z,7.22
2022-08-14T20:40:50.570Z,6.53
2022-08-14T20:44:11.864Z,6.57
2022-08-14T20:47:16.353Z,5.00
2022-08-14T20:50:28.561Z,4.85
2022-08-14T20:53:34.419Z,5.43
2022-08-14T20:56:42.676Z,5.60
2022-08-14T20:59:48.858Z,6.45
2022-08-14T21:02:52.266Z,5.10
2022-08-14T21:05:56.739Z,7.25
2022-08-14T21:09:02.060Z,6.80
2022-08-14T21:12:04.563Z,5.65
2022-08-14T21:15:10.207Z,5.97
2022-08-14T21:18:13.945Z,7.35
2022-08-14T21:21:26.098Z,6.68
2022-08-14T21:24:47.530Z,7.32
2022-08-14T21:27:57.409Z,7.63
2022-08-14T21:31:01.508Z,9.07
2022-08-14T21:34:05.539Z,8.02
2022-08-14T21:37:25.693Z,7.28
2022-08-14T21:40:41.590Z,8.45
2022-08-14T21:43:44.669Z,6.53
2022-08-14T21:46:54.013Z,6.45
2022-08-14T21:49:55.948Z,7.35
2022-08-14T21:53:03.663Z,9.93
2022-08-14T21:56:11.520Z,10.10
2022-08-14T21:59:22.350Z,5.75
2022-08-14T22:02:32.698Z,8.73
2022-08-14T22:05:36.760Z,6.78
2022-08-14T22:08:38.539Z,5.97
2022-08-14T22:11:41.304Z,6.25
2022-08-14T22:14:45.118Z,4.93
2022-08-14T22:17:52.238Z,8.15
2022-08-14T22:20:56.673Z,6.05
2022-08-14T22:23:58.507Z,6.65
2022-08-14T22:27:04.033Z,5.32
2022-08-14T22:30:13.875Z,6.43
2022-08-14T22:33:20.667Z,4.80
2022-08-14T22:36:42.165Z,4.95
2022-08-14T22:40:51.245Z,6.78
2022-08-14T22:43:09.039Z,4.97
2022-08-14T22:46:15.054Z,5.93
2022-08-14T22:50:28.904Z,6.18
2022-08-14T22:52:49.086Z,5.97
2022-08-14T22:55:51.993Z,7.72
2022-08-14T22:58:54.554Z,6.75
2022-08-14T23:02:03.859Z,5.90
2022-08-14T23:05:07.409Z,6.32
2022-08-14T23:09:00.463Z,6.25
2022-08-14T23:11:37.589Z,12.73
2022-08-14T23:14:41.016Z,7.22
2022-08-14T23:17:43.049Z,6.05
2022-08-14T23:20:45.054Z,6.22
2022-08-14T23:23:46.754Z,6.95
2022-08-14T23:26:50.538Z,5.18
2022-08-14T23:29:55.432Z,6.88
2022-08-14T23:32:57.323Z,5.88
2022-08-14T23:36:00.738Z,10.02
2022-08-14T23:39:10.475Z,5.72
2022-08-14T23:42:18.023Z,5.50
2022-08-14T23:45:36.184Z,7.15
2022-08-14T23:48:40.325Z,5.53
2022-08-14T23:51:48.945Z,11.48
2022-08-14T23:55:11.376Z,6.97
2022-08-14T23:58:29.683Z,7.25
